FAMM/MBD METAR and TAF weather

Enter ICAO airport designator
Station Type Date Time Source
FAMM METAR 2021/10/20 06:00 UTC NOAA

FAMM 200600Z 04023KT CAVOK 16/08 Q1027


Station Type Date Time Source
FAMM Decoded METAR 2021/10/20 06:00 UTC NOAA

Mafikeng Intl. Ad, South Africa (FAMM) 25-47S 025-32E 1300M
Oct 20, 2021 - 02:00 AM EDT / 2021.10.20 0600 UTC
Wind: from the NE (040 degrees) at 26 MPH (23 KT):0
Visibility: greater than 7 mile(s):0
Temperature: 60 F (16 C)
Dew Point: 46 F (8 C)
Relative Humidity: 58%
Pressure (altimeter): 30.33 in. Hg (1027 hPa)
ob: FAMM 200600Z 04023KT CAVOK 16/08 Q1027
cycle: 6

Station Type Date Time Source
FAMM TAF 2021/06/04 04:45 UTC NOAA

TAF TAF FAMM 040440Z 0404/0418 VRB03KT CAVOK TX20/0412Z TN02/0405Z
FM040800 05008KT 9999 SCT040
BECMG 0410/0412 VRB03KT CAVOK

Example: see airport list